sensor_id;sensor_type;location;lat;lon;timestamp;pressure;altitude;pressure_sealevel;temperature;humidity
13456;BME280;6800;50.940;6.940;2024-02-21T00:00:58;101624.81;;;18.43;41.23
13456;BME280;6800;50.940;6.940;2024-02-21T00:04:59;101618.53;;;18.33;41.53
13456;BME280;6800;50.940;6.940;2024-02-21T00:09:01;101620.47;;;18.31;41.77
13456;BME280;6800;50.940;6.940;2024-02-21T00:13:03;101612.72;;;18.17;42.30
13456;BME280;6800;50.940;6.940;2024-02-21T00:17:04;101606.19;;;18.10;41.95
13456;BME280;6800;50.940;6.940;2024-02-21T00:21:05;101611.56;;;18.56;41.55
13456;BME280;6800;50.940;6.940;2024-02-21T00:25:07;101589.59;;;18.32;42.08
13456;BME280;6800;50.940;6.940;2024-02-21T00:29:09;101603.28;;;18.26;42.24
13456;BME280;6800;50.940;6.940;2024-02-21T00:33:11;101587.91;;;18.54;42.01
13456;BME280;6800;50.940;6.940;2024-02-21T00:37:13;101583.78;;;18.50;41.56
13456;BME280;6800;50.940;6.940;2024-02-21T00:41:15;101585.25;;;18.54;42.12
13456;BME280;6800;50.940;6.940;2024-02-21T00:45:16;101571.69;;;18.59;41.66
13456;BME280;6800;50.940;6.940;2024-02-21T00:49:18;101576.81;;;18.49;41.78
13456;BME280;6800;50.940;6.940;2024-02-21T00:53:20;101575.00;;;18.50;41.87
13456;BME280;6800;50.940;6.940;2024-02-21T00:57:21;101565.91;;;18.30;42.23
13456;BME280;6800;50.940;6.940;2024-02-21T01:01:24;101553.13;;;18.24;42.84
13456;BME280;6800;50.940;6.940;2024-02-21T01:05:26;101562.91;;;18.24;42.59
13456;BME280;6800;50.940;6.940;2024-02-21T01:09:30;101556.09;;;18.43;42.24
13456;BME280;6800;50.940;6.940;2024-02-21T01:13:31;101550.75;;;18.32;42.52
13456;BME280;6800;50.940;6.940;2024-02-21T01:17:34;101554.38;;;18.31;42.34
13456;BME280;6800;50.940;6.940;2024-02-21T01:21:35;101544.75;;;18.30;42.75
13456;BME280;6800;50.940;6.940;2024-02-21T01:25:37;101537.19;;;18.37;42.58
13456;BME280;6800;50.940;6.940;2024-02-21T01:29:38;101535.88;;;18.31;42.89
13456;BME280;6800;50.940;6.940;2024-02-21T01:33:40;101532.22;;;18.45;42.96
13456;BME280;6800;50.940;6.940;2024-02-21T01:37:42;101522.91;;;18.39;42.57
13456;BME280;6800;50.940;6.940;2024-02-21T01:41:44;101527.13;;;18.42;42.75
13456;BME280;6800;50.940;6.940;2024-02-21T01:45:52;101526.84;;;18.57;42.96
13456;BME280;6800;50.940;6.940;2024-02-21T01:49:54;101522.69;;;18.42;42.72
13456;BME280;6800;50.940;6.940;2024-02-21T01:53:56;101507.72;;;18.65;42.66
13456;BME280;6800;50.940;6.940;2024-02-21T01:57:59;101503.50;;;18.51;42.77
13456;BME280;6800;50.940;6.940;2024-02-21T02:02:02;101500.63;;;18.54;42.56
13456;BME280;6800;50.940;6.940;2024-02-21T02:06:07;101484.16;;;18.51;42.90
13456;BME280;6800;50.940;6.940;2024-02-21T02:10:08;101482.81;;;18.45;42.77
13456;BME280;6800;50.940;6.940;2024-02-21T02:14:11;101474.53;;;18.50;42.57
13456;BME280;6800;50.940;6.940;2024-02-21T02:18:14;101467.75;;;18.35;43.27
13456;BME280;6800;50.940;6.940;2024-02-21T02:22:22;101462.34;;;18.36;43.30
13456;BME280;6800;50.940;6.940;2024-02-21T02:26:23;101453.94;;;18.31;42.92
13456;BME280;6800;50.940;6.940;2024-02-21T02:30:25;101440.22;;;18.37;42.92
13456;BME280;6800;50.940;6.940;2024-02-21T02:34:27;101428.97;;;18.01;43.61
13456;BME280;6800;50.940;6.940;2024-02-21T02:38:29;101417.16;;;18.17;43.49
13456;BME280;6800;50.940;6.940;2024-02-21T02:42:31;101428.44;;;18.19;43.65
13456;BME280;6800;50.940;6.940;2024-02-21T02:46:32;101418.88;;;17.94;43.78
13456;BME280;6800;50.940;6.940;2024-02-21T02:50:35;101423.97;;;18.09;43.53
13456;BME280;6800;50.940;6.940;2024-02-21T02:54:36;101427.13;;;18.25;43.77
13456;BME280;6800;50.940;6.940;2024-02-21T02:58:38;101413.06;;;18.24;43.32
13456;BME280;6800;50.940;6.940;2024-02-21T03:02:41;101412.84;;;18.27;43.26
13456;BME280;6800;50.940;6.940;2024-02-21T03:06:43;101408.13;;;18.31;43.12
13456;BME280;6800;50.940;6.940;2024-02-21T03:10:45;101408.22;;;18.07;43.46
13456;BME280;6800;50.940;6.940;2024-02-21T03:14:46;101389.28;;;18.35;43.15
13456;BME280;6800;50.940;6.940;2024-02-21T03:18:48;101389.53;;;18.21;43.16
13456;BME280;6800;50.940;6.940;2024-02-21T03:22:50;101385.16;;;18.09;43.64
13456;BME280;6800;50.940;6.940;2024-02-21T03:26:51;101380.75;;;18.32;42.76
13456;BME280;6800;50.940;6.940;2024-02-21T03:30:56;101381.47;;;18.23;43.16
13456;BME280;6800;50.940;6.940;2024-02-21T03:34:57;101355.16;;;18.21;42.97
13456;BME280;6800;50.940;6.940;2024-02-21T03:38:59;101362.34;;;17.97;43.48
13456;BME280;6800;50.940;6.940;2024-02-21T03:43:01;101371.47;;;18.04;43.44
13456;BME280;6800;50.940;6.940;2024-02-21T03:47:02;101358.25;;;17.93;43.91
13456;BME280;6800;50.940;6.940;2024-02-21T03:51:04;101351.47;;;17.78;43.80
13456;BME280;6800;50.940;6.940;2024-02-21T03:55:06;101349.59;;;17.91;43.77
13456;BME280;6800;50.940;6.940;2024-02-21T03:59:09;101348.19;;;17.98;43.48
13456;BME280;6800;50.940;6.940;2024-02-21T04:03:10;101363.06;;;18.10;43.18
13456;BME280;6800;50.940;6.940;2024-02-21T04:07:13;101350.81;;;18.09;43.53
13456;BME280;6800;50.940;6.940;2024-02-21T04:11:14;101365.13;;;18.18;43.38
13456;BME280;6800;50.940;6.940;2024-02-21T04:15:16;101368.22;;;18.12;43.64
13456;BME280;6800;50.940;6.940;2024-02-21T04:19:18;101368.44;;;17.86;44.02
13456;BME280;6800;50.940;6.940;2024-02-21T04:23:20;101364.25;;;17.60;44.70
13456;BME280;6800;50.940;6.940;2024-02-21T04:27:21;101350.97;;;17.62;44.41
13456;BME280;6800;50.940;6.940;2024-02-21T04:31:24;101348.59;;;17.70;44.01
13456;BME280;6800;50.940;6.940;2024-02-21T04:35:26;101334.91;;;17.76;44.07
13456;BME280;6800;50.940;6.940;2024-02-21T04:39:27;101331.13;;;17.56;44.27
13456;BME280;6800;50.940;6.940;2024-02-21T04:43:29;101331.75;;;17.60;44.71
13456;BME280;6800;50.940;6.940;2024-02-21T04:47:30;101333.97;;;17.77;43.85
13456;BME280;6800;50.940;6.940;2024-02-21T04:51:32;101343.91;;;17.39;44.18
13456;BME280;6800;50.940;6.940;2024-02-21T04:55:36;101339.56;;;17.61;43.88
13456;BME280;6800;50.940;6.940;2024-02-21T04:59:38;101334.84;;;17.54;44.02
13456;BME280;6800;50.940;6.940;2024-02-21T05:03:40;101331.13;;;17.22;44.22
13456;BME280;6800;50.940;6.940;2024-02-21T05:07:41;101334.75;;;17.55;44.16
13456;BME280;6800;50.940;6.940;2024-02-21T05:11:43;101336.41;;;17.56;44.03
13456;BME280;6800;50.940;6.940;2024-02-21T05:15:45;101336.09;;;17.72;44.05
13456;BME280;6800;50.940;6.940;2024-02-21T05:19:46;101327.97;;;17.75;44.05
13456;BME280;6800;50.940;6.940;2024-02-21T05:23:48;101333.41;;;17.96;43.23
13456;BME280;6800;50.940;6.940;2024-02-21T05:27:51;101329.44;;;18.01;43.21
13456;BME280;6800;50.940;6.940;2024-02-21T05:31:55;101322.69;;;17.86;43.13
13456;BME280;6800;50.940;6.940;2024-02-21T05:35:58;101320.56;;;18.02;42.81
13456;BME280;6800;50.940;6.940;2024-02-21T05:40:01;101307.69;;;17.86;43.06
13456;BME280;6800;50.940;6.940;2024-02-21T05:44:02;101301.44;;;17.99;42.85
13456;BME280;6800;50.940;6.940;2024-02-21T05:48:04;101308.53;;;17.87;43.02
13456;BME280;6800;50.940;6.940;2024-02-21T05:52:06;101308.53;;;18.09;42.65
13456;BME280;6800;50.940;6.940;2024-02-21T05:56:11;101312.72;;;18.01;43.15
13456;BME280;6800;50.940;6.940;2024-02-21T06:00:13;101308.16;;;17.80;43.47
13456;BME280;6800;50.940;6.940;2024-02-21T06:04:15;101301.19;;;17.90;43.75
13456;BME280;6800;50.940;6.940;2024-02-21T06:08:16;101302.28;;;17.77;43.75
13456;BME280;6800;50.940;6.940;2024-02-21T06:12:20;101301.81;;;17.83;43.78
13456;BME280;6800;50.940;6.940;2024-02-21T06:16:22;101287.88;;;17.81;43.57
13456;BME280;6800;50.940;6.940;2024-02-21T06:20:23;101281.03;;;17.89;43.46
13456;BME280;6800;50.940;6.940;2024-02-21T06:24:25;101287.78;;;17.93;45.06
13456;BME280;6800;50.940;6.940;2024-02-21T06:28:26;101283.22;;;18.07;43.66
13456;BME280;6800;50.940;6.940;2024-02-21T06:32:28;101279.34;;;18.00;43.70
13456;BME280;6800;50.940;6.940;2024-02-21T06:36:29;101274.78;;;18.02;43.38
13456;BME280;6800;50.940;6.940;2024-02-21T06:40:32;101271.06;;;17.93;43.25
13456;BME280;6800;50.940;6.940;2024-02-21T06:44:39;101260.72;;;17.68;43.63
13456;BME280;6800;50.940;6.940;2024-02-21T06:48:42;101260.50;;;17.82;43.61
13456;BME280;6800;50.940;6.940;2024-02-21T06:52:47;101250.72;;;17.60;43.79
13456;BME280;6800;50.940;6.940;2024-02-21T06:56:49;101247.44;;;17.91;43.22
13456;BME280;6800;50.940;6.940;2024-02-21T07:00:50;101244.88;;;17.90;43.52
13456;BME280;6800;50.940;6.940;2024-02-21T07:04:52;101236.00;;;17.58;43.54
13456;BME280;6800;50.940;6.940;2024-02-21T07:08:53;101242.25;;;17.68;43.81
13456;BME280;6800;50.940;6.940;2024-02-21T07:12:55;101239.63;;;17.33;44.16
13456;BME280;6800;50.940;6.940;2024-02-21T07:16:56;101234.78;;;17.51;44.01
13456;BME280;6800;50.940;6.940;2024-02-21T07:20:58;101232.16;;;17.84;43.40
13456;BME280;6800;50.940;6.940;2024-02-21T07:25:00;101225.66;;;17.55;43.41
13456;BME280;6800;50.940;6.940;2024-02-21T07:29:05;101229.53;;;17.62;43.57
13456;BME280;6800;50.940;6.940;2024-02-21T07:33:07;101230.44;;;17.50;44.18
13456;BME280;6800;50.940;6.940;2024-02-21T07:37:09;101223.75;;;17.22;44.67
13456;BME280;6800;50.940;6.940;2024-02-21T07:41:11;101220.03;;;17.25;44.96
13456;BME280;6800;50.940;6.940;2024-02-21T07:45:12;101221.69;;;17.14;45.26
13456;BME280;6800;50.940;6.940;2024-02-21T07:49:13;101225.47;;;16.99;45.18
13456;BME280;6800;50.940;6.940;2024-02-21T07:53:15;101213.56;;;17.29;44.88
13456;BME280;6800;50.940;6.940;2024-02-21T07:57:17;101216.50;;;17.48;44.43
13456;BME280;6800;50.940;6.940;2024-02-21T08:01:21;101210.88;;;17.52;44.28
13456;BME280;6800;50.940;6.940;2024-02-21T08:05:23;101204.75;;;17.52;44.31
13456;BME280;6800;50.940;6.940;2024-02-21T08:09:25;101202.25;;;17.50;44.45
13456;BME280;6800;50.940;6.940;2024-02-21T08:13:26;101199.63;;;17.61;44.06
13456;BME280;6800;50.940;6.940;2024-02-21T08:17:29;101189.72;;;17.41;44.63
13456;BME280;6800;50.940;6.940;2024-02-21T08:21:31;101178.81;;;17.35;45.10
13456;BME280;6800;50.940;6.940;2024-02-21T08:25:32;101178.44;;;17.39;44.80
13456;BME280;6800;50.940;6.940;2024-02-21T08:29:34;101172.16;;;17.64;44.15
13456;BME280;6800;50.940;6.940;2024-02-21T08:33:36;101156.03;;;17.34;44.45
13456;BME280;6800;50.940;6.940;2024-02-21T08:37:37;101148.91;;;17.12;44.54
13456;BME280;6800;50.940;6.940;2024-02-21T08:41:39;101140.06;;;17.79;43.03
13456;BME280;6800;50.940;6.940;2024-02-21T08:45:57;101136.69;;;18.00;42.71
13456;BME280;6800;50.940;6.940;2024-02-21T08:49:58;101136.56;;;18.55;41.63
13456;BME280;6800;50.940;6.940;2024-02-21T08:54:05;101124.81;;;18.37;40.96
13456;BME280;6800;50.940;6.940;2024-02-21T08:58:07;101125.13;;;18.54;41.15
13456;BME280;6800;50.940;6.940;2024-02-21T09:02:08;101119.63;;;18.15;41.54
13456;BME280;6800;50.940;6.940;2024-02-21T09:06:10;101108.38;;;18.65;40.28
13456;BME280;6800;50.940;6.940;2024-02-21T09:10:14;101093.81;;;19.21;39.07
13456;BME280;6800;50.940;6.940;2024-02-21T09:14:16;101084.50;;;19.97;37.29
13456;BME280;6800;50.940;6.940;2024-02-21T09:18:17;101081.00;;;19.96;36.70
13456;BME280;6800;50.940;6.940;2024-02-21T09:22:18;101075.28;;;19.42;37.59
13456;BME280;6800;50.940;6.940;2024-02-21T09:26:20;101079.41;;;19.65;36.89
13456;BME280;6800;50.940;6.940;2024-02-21T09:30:21;101077.03;;;19.02;37.89
13456;BME280;6800;50.940;6.940;2024-02-21T09:34:23;101077.13;;;19.00;37.75
13456;BME280;6800;50.940;6.940;2024-02-21T09:38:25;101071.00;;;19.30;37.20
13456;BME280;6800;50.940;6.940;2024-02-21T09:42:36;101047.66;;;19.94;36.10
13456;BME280;6800;50.940;6.940;2024-02-21T09:46:52;101051.06;;;19.47;36.76
13456;BME280;6800;50.940;6.940;2024-02-21T09:50:57;101038.31;;;19.99;35.82
13456;BME280;6800;50.940;6.940;2024-02-21T09:55:01;101034.44;;;20.42;34.58
13456;BME280;6800;50.940;6.940;2024-02-21T09:59:03;101031.13;;;19.62;35.91
13456;BME280;6800;50.940;6.940;2024-02-21T10:03:08;101032.72;;;19.83;35.38
13456;BME280;6800;50.940;6.940;2024-02-21T10:07:10;101031.59;;;19.76;35.59
13456;BME280;6800;50.940;6.940;2024-02-21T10:11:22;101029.38;;;20.00;35.20
13456;BME280;6800;50.940;6.940;2024-02-21T10:15:24;101017.13;;;19.99;34.50
13456;BME280;6800;50.940;6.940;2024-02-21T10:19:26;101017.22;;;20.65;33.79
13456;BME280;6800;50.940;6.940;2024-02-21T10:23:28;101016.16;;;20.29;34.21
13456;BME280;6800;50.940;6.940;2024-02-21T10:27:29;101021.13;;;19.75;35.10
13456;BME280;6800;50.940;6.940;2024-02-21T10:31:31;101010.53;;;19.65;36.01
13456;BME280;6800;50.940;6.940;2024-02-21T10:35:33;101001.94;;;20.20;34.87
13456;BME280;6800;50.940;6.940;2024-02-21T10:39:39;101010.66;;;20.69;34.09
13456;BME280;6800;50.940;6.940;2024-02-21T10:43:40;100991.34;;;20.20;34.48
13456;BME280;6800;50.940;6.940;2024-02-21T10:47:47;100992.22;;;20.67;33.95
13456;BME280;6800;50.940;6.940;2024-02-21T10:56:31;100979.31;;;19.97;34.82
13456;BME280;6800;50.940;6.940;2024-02-21T11:00:33;100968.28;;;20.31;34.73
13456;BME280;6800;50.940;6.940;2024-02-21T11:04:35;100953.78;;;20.25;34.63
13456;BME280;6800;50.940;6.940;2024-02-21T11:08:38;100924.47;;;21.00;33.40
13456;BME280;6800;50.940;6.940;2024-02-21T11:12:39;100934.56;;;19.85;35.28
13456;BME280;6800;50.940;6.940;2024-02-21T11:16:41;100916.41;;;19.71;35.12
13456;BME280;6800;50.940;6.940;2024-02-21T11:20:49;100901.19;;;20.01;35.22
13456;BME280;6800;50.940;6.940;2024-02-21T11:24:52;100889.75;;;20.01;35.00
13456;BME280;6800;50.940;6.940;2024-02-21T11:29:04;100859.91;;;20.82;33.05
13456;BME280;6800;50.940;6.940;2024-02-21T11:33:06;100859.91;;;20.55;34.27
13456;BME280;6800;50.940;6.940;2024-02-21T11:37:15;100828.88;;;20.55;33.73
13456;BME280;6800;50.940;6.940;2024-02-21T11:41:19;100812.34;;;19.97;35.04
13456;BME280;6800;50.940;6.940;2024-02-21T11:45:25;100814.53;;;19.46;35.81
13456;BME280;6800;50.940;6.940;2024-02-21T11:49:29;100800.19;;;20.04;34.57
13456;BME280;6800;50.940;6.940;2024-02-21T11:53:31;100783.66;;;20.30;34.44
13456;BME280;6800;50.940;6.940;2024-02-21T11:57:37;100783.91;;;20.36;34.46
13456;BME280;6800;50.940;6.940;2024-02-21T12:01:44;100759.97;;;20.18;34.33
13456;BME280;6800;50.940;6.940;2024-02-21T12:05:45;100755.00;;;20.06;34.73
13456;BME280;6800;50.940;6.940;2024-02-21T12:09:59;100739.34;;;19.66;35.47
13456;BME280;6800;50.940;6.940;2024-02-21T12:14:04;100733.97;;;20.32;34.73
13456;BME280;6800;50.940;6.940;2024-02-21T12:18:06;100718.16;;;20.40;34.29
13456;BME280;6800;50.940;6.940;2024-02-21T12:22:08;100696.63;;;19.88;34.90
13456;BME280;6800;50.940;6.940;2024-02-21T12:26:10;100694.69;;;19.15;36.09
13456;BME280;6800;50.940;6.940;2024-02-21T12:30:12;100680.38;;;18.80;37.05
13456;BME280;6800;50.940;6.940;2024-02-21T12:34:14;100655.00;;;20.26;34.34
13456;BME280;6800;50.940;6.940;2024-02-21T12:38:16;100658.72;;;19.32;36.11
13456;BME280;6800;50.940;6.940;2024-02-21T12:42:19;100636.47;;;19.25;36.56
13456;BME280;6800;50.940;6.940;2024-02-21T12:46:22;100629.69;;;19.13;36.84
13456;BME280;6800;50.940;6.940;2024-02-21T12:50:23;100583.00;;;19.12;37.17
13456;BME280;6800;50.940;6.940;2024-02-21T12:54:25;100519.72;;;18.91;37.43
13456;BME280;6800;50.940;6.940;2024-02-21T12:58:27;100544.28;;;19.57;36.52
13456;BME280;6800;50.940;6.940;2024-02-21T13:02:31;100557.84;;;18.98;37.59
13456;BME280;6800;50.940;6.940;2024-02-21T13:06:33;100576.88;;;19.11;36.88
13456;BME280;6800;50.940;6.940;2024-02-21T13:10:34;100509.28;;;18.90;37.16
13456;BME280;6800;50.940;6.940;2024-02-21T13:14:36;100509.59;;;19.68;35.57
13456;BME280;6800;50.940;6.940;2024-02-21T13:18:40;100513.72;;;19.80;35.54
13456;BME280;6800;50.940;6.940;2024-02-21T13:22:44;100511.59;;;19.84;35.35
13456;BME280;6800;50.940;6.940;2024-02-21T13:26:45;100496.66;;;20.79;34.08
13456;BME280;6800;50.940;6.940;2024-02-21T13:30:47;100509.28;;;20.85;33.33
13456;BME280;6800;50.940;6.940;2024-02-21T13:34:49;100510.69;;;20.46;33.92
13456;BME280;6800;50.940;6.940;2024-02-21T13:38:51;100519.28;;;20.22;34.56
13456;BME280;6800;50.940;6.940;2024-02-21T13:42:54;100489.34;;;20.30;34.55
13456;BME280;6800;50.940;6.940;2024-02-21T13:46:56;100465.22;;;20.41;34.10
13456;BME280;6800;50.940;6.940;2024-02-21T13:50:57;100473.88;;;20.68;34.31
13456;BME280;6800;50.940;6.940;2024-02-21T13:54:59;100484.00;;;19.41;35.57
13456;BME280;6800;50.940;6.940;2024-02-21T13:59:01;100452.09;;;20.13;34.55
13456;BME280;6800;50.940;6.940;2024-02-21T14:03:03;100443.91;;;19.89;35.15
13456;BME280;6800;50.940;6.940;2024-02-21T14:07:04;100430.53;;;19.73;35.64
13456;BME280;6800;50.940;6.940;2024-02-21T14:11:07;100426.88;;;19.92;34.96
13456;BME280;6800;50.940;6.940;2024-02-21T14:15:08;100419.97;;;20.16;34.96
13456;BME280;6800;50.940;6.940;2024-02-21T14:19:13;100415.31;;;19.93;34.98
13456;BME280;6800;50.940;6.940;2024-02-21T14:23:15;100397.94;;;20.16;34.67
13456;BME280;6800;50.940;6.940;2024-02-21T14:27:16;100400.50;;;20.26;34.34
13456;BME280;6800;50.940;6.940;2024-02-21T14:31:18;100389.75;;;19.84;35.37
13456;BME280;6800;50.940;6.940;2024-02-21T14:35:20;100378.56;;;19.55;36.00
13456;BME280;6800;50.940;6.940;2024-02-21T14:39:22;100365.63;;;20.12;35.07
13456;BME280;6800;50.940;6.940;2024-02-21T14:43:24;100366.41;;;20.31;34.36
13456;BME280;6800;50.940;6.940;2024-02-21T14:47:26;100356.25;;;20.52;34.09
13456;BME280;6800;50.940;6.940;2024-02-21T14:51:28;100344.16;;;20.23;34.36
13456;BME280;6800;50.940;6.940;2024-02-21T14:55:33;100345.38;;;20.11;34.13
13456;BME280;6800;50.940;6.940;2024-02-21T14:59:34;100329.78;;;20.08;34.87
13456;BME280;6800;50.940;6.940;2024-02-21T15:03:36;100318.66;;;20.56;34.05
13456;BME280;6800;50.940;6.940;2024-02-21T15:07:37;100314.38;;;20.71;33.48
13456;BME280;6800;50.940;6.940;2024-02-21T15:11:39;100312.06;;;20.76;32.88
13456;BME280;6800;50.940;6.940;2024-02-21T15:15:41;100308.75;;;20.33;32.96
13456;BME280;6800;50.940;6.940;2024-02-21T15:19:43;100298.53;;;20.46;32.29
13456;BME280;6800;50.940;6.940;2024-02-21T15:23:46;100281.53;;;20.64;31.50
13456;BME280;6800;50.940;6.940;2024-02-21T15:27:47;100272.44;;;20.67;31.53
13456;BME280;6800;50.940;6.940;2024-02-21T15:31:49;100259.56;;;21.04;30.97
13456;BME280;6800;50.940;6.940;2024-02-21T15:35:50;100256.13;;;20.46;32.89
13456;BME280;6800;50.940;6.940;2024-02-21T15:39:52;100253.56;;;20.28;32.96
13456;BME280;6800;50.940;6.940;2024-02-21T15:43:54;100254.19;;;19.96;32.69
13456;BME280;6800;50.940;6.940;2024-02-21T15:47:58;100242.09;;;20.28;31.81
13456;BME280;6800;50.940;6.940;2024-02-21T15:51:59;100238.53;;;20.45;32.62
13456;BME280;6800;50.940;6.940;2024-02-21T15:56:00;100227.13;;;20.44;30.15
13456;BME280;6800;50.940;6.940;2024-02-21T16:00:05;100218.91;;;20.30;31.50
13456;BME280;6800;50.940;6.940;2024-02-21T16:04:07;100223.97;;;19.56;32.64
13456;BME280;6800;50.940;6.940;2024-02-21T16:08:09;100212.31;;;20.00;32.50
13456;BME280;6800;50.940;6.940;2024-02-21T16:12:10;100196.06;;;19.35;32.79
13456;BME280;6800;50.940;6.940;2024-02-21T16:16:12;100181.34;;;19.67;32.49
13456;BME280;6800;50.940;6.940;2024-02-21T16:20:14;100181.63;;;19.89;32.28
13456;BME280;6800;50.940;6.940;2024-02-21T16:24:17;100167.13;;;18.99;33.54
13456;BME280;6800;50.940;6.940;2024-02-21T16:28:18;100152.50;;;19.56;33.13
13456;BME280;6800;50.940;6.940;2024-02-21T16:32:19;100143.00;;;19.45;33.46
13456;BME280;6800;50.940;6.940;2024-02-21T16:36:22;100135.84;;;19.37;33.73
13456;BME280;6800;50.940;6.940;2024-02-21T16:40:24;100118.66;;;19.16;34.44
13456;BME280;6800;50.940;6.940;2024-02-21T16:44:26;100117.00;;;19.15;34.26
13456;BME280;6800;50.940;6.940;2024-02-21T16:48:27;100102.75;;;18.90;35.13
13456;BME280;6800;50.940;6.940;2024-02-21T16:52:31;100111.22;;;18.94;35.25
13456;BME280;6800;50.940;6.940;2024-02-21T16:56:33;100087.69;;;18.65;35.65
13456;BME280;6800;50.940;6.940;2024-02-21T17:00:34;100101.25;;;18.88;35.79
13456;BME280;6800;50.940;6.940;2024-02-21T17:04:37;100111.81;;;18.44;36.54
13456;BME280;6800;50.940;6.940;2024-02-21T17:08:39;100098.53;;;18.09;37.28
13456;BME280;6800;50.940;6.940;2024-02-21T17:12:42;100099.72;;;18.59;36.76
13456;BME280;6800;50.940;6.940;2024-02-21T17:16:43;100082.84;;;18.25;36.55
13456;BME280;6800;50.940;6.940;2024-02-21T17:20:45;100089.56;;;18.37;36.71
13456;BME280;6800;50.940;6.940;2024-02-21T17:24:46;100080.94;;;18.18;37.21
13456;BME280;6800;50.940;6.940;2024-02-21T17:28:48;100081.84;;;18.26;36.38
13456;BME280;6800;50.940;6.940;2024-02-21T17:32:50;100073.19;;;18.16;36.77
13456;BME280;6800;50.940;6.940;2024-02-21T17:36:53;100072.66;;;17.68;38.15
13456;BME280;6800;50.940;6.940;2024-02-21T17:40:54;100062.84;;;18.23;38.55
13456;BME280;6800;50.940;6.940;2024-02-21T17:44:56;100064.66;;;17.60;40.23
13456;BME280;6800;50.940;6.940;2024-02-21T17:48:57;100054.00;;;17.97;40.04
13456;BME280;6800;50.940;6.940;2024-02-21T17:53:00;100028.94;;;17.83;41.25
13456;BME280;6800;50.940;6.940;2024-02-21T17:57:02;100021.22;;;17.72;41.40
13456;BME280;6800;50.940;6.940;2024-02-21T18:01:04;100014.94;;;17.46;43.22
13456;BME280;6800;50.940;6.940;2024-02-21T18:05:06;99995.53;;;17.20;43.67
13456;BME280;6800;50.940;6.940;2024-02-21T18:09:07;99973.84;;;17.43;44.65
13456;BME280;6800;50.940;6.940;2024-02-21T18:13:10;99973.41;;;17.30;45.50
13456;BME280;6800;50.940;6.940;2024-02-21T18:17:12;99970.38;;;16.23;46.42
13456;BME280;6800;50.940;6.940;2024-02-21T18:21:15;99947.16;;;17.01;45.49
13456;BME280;6800;50.940;6.940;2024-02-21T18:25:17;99935.63;;;16.75;46.57
13456;BME280;6800;50.940;6.940;2024-02-21T18:29:18;99915.19;;;16.40;47.09
13456;BME280;6800;50.940;6.940;2024-02-21T18:33:26;99911.16;;;16.56;47.90
13456;BME280;6800;50.940;6.940;2024-02-21T18:37:27;99900.19;;;16.60;47.30
13456;BME280;6800;50.940;6.940;2024-02-21T18:41:30;99899.28;;;16.23;48.78
13456;BME280;6800;50.940;6.940;2024-02-21T18:45:32;99890.69;;;16.30;48.76
13456;BME280;6800;50.940;6.940;2024-02-21T18:49:33;99887.72;;;16.53;49.15
13456;BME280;6800;50.940;6.940;2024-02-21T18:53:36;99894.91;;;16.60;49.18
13456;BME280;6800;50.940;6.940;2024-02-21T18:57:38;99887.13;;;16.59;49.80
13456;BME280;6800;50.940;6.940;2024-02-21T19:01:40;99891.03;;;15.89;51.17
13456;BME280;6800;50.940;6.940;2024-02-21T19:05:41;99894.09;;;16.50;50.08
13456;BME280;6800;50.940;6.940;2024-02-21T19:09:43;99890.75;;;16.58;49.89
13456;BME280;6800;50.940;6.940;2024-02-21T19:13:45;99891.31;;;16.42;50.97
13456;BME280;6800;50.940;6.940;2024-02-21T19:17:47;99890.66;;;16.77;49.96
13456;BME280;6800;50.940;6.940;2024-02-21T19:21:48;99885.47;;;16.58;50.73
13456;BME280;6800;50.940;6.940;2024-02-21T19:25:50;99882.25;;;16.64;50.75
13456;BME280;6800;50.940;6.940;2024-02-21T19:29:52;99872.50;;;16.74;51.12
13456;BME280;6800;50.940;6.940;2024-02-21T19:33:53;99859.88;;;16.40;52.71
13456;BME280;6800;50.940;6.940;2024-02-21T19:37:59;99843.91;;;16.42;52.27
13456;BME280;6800;50.940;6.940;2024-02-21T19:42:04;99834.34;;;16.41;52.28
13456;BME280;6800;50.940;6.940;2024-02-21T19:46:06;99810.50;;;16.06;53.27
13456;BME280;6800;50.940;6.940;2024-02-21T19:50:08;99796.19;;;16.55;52.45
13456;BME280;6800;50.940;6.940;2024-02-21T19:54:10;99796.63;;;16.50;52.27
13456;BME280;6800;50.940;6.940;2024-02-21T19:58:25;99795.53;;;16.43;52.96
13456;BME280;6800;50.940;6.940;2024-02-21T20:02:27;99782.28;;;16.62;52.65
13456;BME280;6800;50.940;6.940;2024-02-21T20:06:29;99767.81;;;16.39;53.20
13456;BME280;6800;50.940;6.940;2024-02-21T20:10:30;99761.81;;;16.56;52.68
13456;BME280;6800;50.940;6.940;2024-02-21T20:14:32;99752.78;;;16.49;53.45
13456;BME280;6800;50.940;6.940;2024-02-21T20:18:34;99741.53;;;16.57;52.30
13456;BME280;6800;50.940;6.940;2024-02-21T20:22:35;99730.47;;;16.88;52.31
13456;BME280;6800;50.940;6.940;2024-02-21T20:26:37;99737.13;;;17.10;51.30
13456;BME280;6800;50.940;6.940;2024-02-21T20:30:44;99728.06;;;17.12;51.64
13456;BME280;6800;50.940;6.940;2024-02-21T20:34:46;99726.19;;;16.70;52.39
13456;BME280;6800;50.940;6.940;2024-02-21T20:38:52;99723.25;;;17.08;51.68
13456;BME280;6800;50.940;6.940;2024-02-21T20:42:54;99716.03;;;16.92;51.78
13456;BME280;6800;50.940;6.940;2024-02-21T20:46:56;99713.53;;;17.08;51.95
13456;BME280;6800;50.940;6.940;2024-02-21T20:50:58;99705.63;;;16.73;52.33
13456;BME280;6800;50.940;6.940;2024-02-21T20:55:00;99698.03;;;16.53;53.97
13456;BME280;6800;50.940;6.940;2024-02-21T20:59:02;99684.69;;;17.33;52.56
13456;BME280;6800;50.940;6.940;2024-02-21T21:03:03;99673.22;;;17.16;52.07
13456;BME280;6800;50.940;6.940;2024-02-21T21:07:05;99669.06;;;16.70;52.79
13456;BME280;6800;50.940;6.940;2024-02-21T21:11:07;99656.94;;;16.60;53.18
13456;BME280;6800;50.940;6.940;2024-02-21T21:15:09;99651.50;;;16.61;53.26
13456;BME280;6800;50.940;6.940;2024-02-21T21:19:11;99643.56;;;16.43;53.64
13456;BME280;6800;50.940;6.940;2024-02-21T21:23:13;99638.84;;;16.47;54.18
13456;BME280;6800;50.940;6.940;2024-02-21T21:27:14;99632.09;;;16.62;54.37
13456;BME280;6800;50.940;6.940;2024-02-21T21:31:18;99617.53;;;16.76;53.40